Řízení letového provozu České republiky
Letiste: LKLN Aktualizace: 16.10.2019 00:25:25  UTC
 METAR LKLN 16.10. 00:30 ...
METAR LKLN 160030Z AUTO 22009KT 6000 OVC009 13/12 Q1009=